Time;durP1;ratioP1;P1;durP2;ratioP2;P2;SDS_P1;SDS_P2;PMS_P1;PMS_P2;Temp;Humidity;BMP_temperature;BMP_pressure;BME280_temperature;BME280_humidity;BME280_pressure;Samples;Min_cycle;Max_cycle;Signal;HPM_P1;HPM_P2
2021/11/09 00:00:32;;;;;;;;;;;;;;;14.73;58.76;100226.91;2103789;27;19943;-64
2021/11/09 00:01:40;;;;;;;;;;;;;;;14.74;58.72;100231.31;2108175;27;19911;-63
2021/11/09 00:02:43;;;;;;;;;;;;;;;14.74;58.78;100234.03;2101080;27;19915;-64
2021/11/09 00:03:56;;;;;;;;;;;;;;;14.74;58.83;100228.59;2101877;27;19962;-64
2021/11/09 00:04:58;;;;;;;;;;;;;;;14.74;58.73;100226.75;2101868;27;20293;-64
2021/11/09 00:06:08;;;;;;;;;;;;;;;14.74;58.66;100232.19;2100541;27;19916;-63
2021/11/09 00:08:28;;;;;;;;;;;;;;;14.74;58.72;100228.59;2093295;28;19915;-63
2021/11/09 00:09:34;;;;;;;;;;;;;;;14.74;58.75;100217.75;2101813;27;19953;-63
2021/11/09 00:10:34;;;;;;;;;;;;;;;14.74;58.73;100223.19;2103201;27;20365;-63
2021/11/09 00:11:34;;;;;;;;;;;;;;;14.73;58.73;100222.31;2098144;28;20263;-63
2021/11/09 00:12:39;;;;;;;;;;;;;;;14.74;58.74;100223.19;2091697;28;20283;-63
2021/11/09 00:13:40;;;;;;;;;;;;;;;14.73;58.79;100229.59;2104072;27;19915;-63
2021/11/09 00:14:40;;;;;;;;;;;;;;;14.74;58.72;100234.03;2101566;27;20669;-65
2021/11/09 00:15:41;;;;;;;;;;;;;;;14.73;58.65;100227.75;2102179;27;20779;-63
2021/11/09 00:16:41;;;;;;;;;;;;;;;14.73;58.73;100227.75;2092234;28;20272;-63
2021/11/09 00:17:45;;;;;;;;;;;;;;;14.74;58.75;100223.19;2091782;28;20310;-63
2021/11/09 00:18:45;;;;;;;;;;;;;;;14.73;58.71;100226.91;2102869;27;19912;-63
2021/11/09 00:19:46;;;;;;;;;;;;;;;14.74;58.83;100225.91;2100755;27;19951;-63
2021/11/09 00:20:46;;;;;;;;;;;;;;;14.73;58.73;100227.75;2103219;27;19916;-63
2021/11/09 00:21:46;;;;;;;;;;;;;;;14.73;58.75;100226.91;2101798;27;19915;-63
2021/11/09 00:22:47;;;;;;;;;;;;;;;14.73;58.72;100225.03;2100278;28;19916;-63
2021/11/09 00:23:48;;;;;;;;;;;;;;;14.74;58.74;100228.59;2102566;27;20044;-63
2021/11/09 00:24:49;;;;;;;;;;;;;;;14.73;58.67;100232.31;2103224;27;20177;-63
2021/11/09 00:25:49;;;;;;;;;;;;;;;14.73;58.65;100226.91;2112143;27;20739;-63
2021/11/09 00:26:50;;;;;;;;;;;;;;;14.72;58.67;100236.00;2106520;27;20286;-63
2021/11/09 00:27:50;;;;;;;;;;;;;;;14.74;58.71;100231.31;2107472;27;19993;-63
2021/11/09 00:28:51;;;;;;;;;;;;;;;14.73;58.70;100227.75;2108215;27;19915;-63
2021/11/09 00:29:51;;;;;;;;;;;;;;;14.73;58.72;100226.91;2102484;27;19916;-63
2021/11/09 00:30:52;;;;;;;;;;;;;;;14.74;58.70;100231.31;2106160;27;19915;-63
2021/11/09 00:31:52;;;;;;;;;;;;;;;14.73;58.75;100232.31;2105673;27;19916;-63
2021/11/09 00:32:52;;;;;;;;;;;;;;;14.72;58.68;100231.47;2093791;28;19915;-63
2021/11/09 00:33:53;;;;;;;;;;;;;;;14.72;58.63;100242.31;2096320;28;19904;-63
2021/11/09 00:34:53;;;;;;;;;;;;;;;14.73;58.68;100235.03;2104143;28;19956;-63
2021/11/09 00:35:54;;;;;;;;;;;;;;;14.74;58.63;100234.91;2101244;27;19931;-63
2021/11/09 00:36:54;;;;;;;;;;;;;;;14.74;58.70;100239.47;2100873;27;20422;-63
2021/11/09 00:37:55;;;;;;;;;;;;;;;14.72;58.64;100230.56;2106870;27;19976;-63
2021/11/09 00:38:56;;;;;;;;;;;;;;;14.73;58.63;100237.75;2104688;27;20202;-63
2021/11/09 00:39:56;;;;;;;;;;;;;;;14.72;58.78;100231.47;2098782;28;19946;-63
2021/11/09 00:40:58;;;;;;;;;;;;;;;14.73;58.70;100233.19;2094527;28;20063;-63
2021/11/09 00:41:58;;;;;;;;;;;;;;;14.72;58.60;100227.84;2107935;27;19907;-63
2021/11/09 00:42:59;;;;;;;;;;;;;;;14.73;58.64;100226.91;2108387;27;19907;-63
2021/11/09 00:44:00;;;;;;;;;;;;;;;14.72;58.64;100220.59;2105374;27;20520;-63
2021/11/09 00:45:00;;;;;;;;;;;;;;;14.74;58.66;100223.19;2102159;27;20426;-63
2021/11/09 00:46:01;;;;;;;;;;;;;;;14.73;58.67;100226.91;2102920;27;19991;-63
2021/11/09 00:47:01;;;;;;;;;;;;;;;14.73;58.58;100235.03;2106624;27;20169;-63
2021/11/09 00:48:02;;;;;;;;;;;;;;;14.73;58.62;100224.19;2100119;27;19972;-64
2021/11/09 00:49:02;;;;;;;;;;;;;;;14.73;58.72;100224.19;2102591;27;19920;-62
2021/11/09 00:50:04;;;;;;;;;;;;;;;14.72;58.62;100225.16;2099398;27;20326;-63
2021/11/09 00:51:05;;;;;;;;;;;;;;;14.72;58.58;100225.16;2101189;27;20359;-62
2021/11/09 00:52:05;;;;;;;;;;;;;;;14.72;58.68;100227.84;2102929;27;20776;-63
2021/11/09 00:53:07;;;;;;;;;;;;;;;14.72;58.67;100236.00;2109222;27;20381;-63
2021/11/09 00:54:08;;;;;;;;;;;;;;;14.71;58.59;100229.72;2105819;27;19915;-63
2021/11/09 00:55:09;;;;;;;;;;;;;;;14.71;58.72;100237.00;2106547;27;19912;-63
2021/11/09 00:56:09;;;;;;;;;;;;;;;14.72;58.56;100247.75;2100365;27;20341;-63
2021/11/09 00:57:09;;;;;;;;;;;;;;;14.73;58.73;100240.47;2103234;27;20001;-63
2021/11/09 00:58:10;;;;;;;;;;;;;;;14.71;58.65;100231.56;2107042;27;19915;-63
2021/11/09 00:59:11;;;;;;;;;;;;;;;14.73;58.61;100235.03;2103746;27;19915;-63
2021/11/09 01:00:14;;;;;;;;;;;;;;;14.72;58.66;100230.56;2101304;27;19926;-63
2021/11/09 01:01:14;;;;;;;;;;;;;;;14.72;58.65;100226.03;2108922;27;19916;-63
2021/11/09 01:02:15;;;;;;;;;;;;;;;14.72;58.59;100225.16;2106485;27;19912;-63
2021/11/09 01:03:15;;;;;;;;;;;;;;;14.72;58.62;100230.56;2105752;27;19912;-63
2021/11/09 01:04:15;;;;;;;;;;;;;;;14.72;58.68;100231.47;2100970;27;19955;-63
2021/11/09 01:05:20;;;;;;;;;;;;;;;14.71;58.66;100224.28;2092206;28;19908;-63
2021/11/09 01:06:21;;;;;;;;;;;;;;;14.72;58.56;100230.56;2100250;27;20038;-63
2021/11/09 01:07:21;;;;;;;;;;;;;;;14.72;58.65;100230.56;2105131;27;19919;-63
2021/11/09 01:08:23;;;;;;;;;;;;;;;14.71;58.66;100223.44;2095908;28;20424;-63
2021/11/09 01:09:23;;;;;;;;;;;;;;;14.71;58.63;100234.28;2097718;28;20402;-63
2021/11/09 01:10:25;;;;;;;;;;;;;;;14.71;58.54;100231.56;2104568;27;19938;-63
2021/11/09 01:11:26;;;;;;;;;;;;;;;14.71;58.60;100232.44;2107846;27;20365;-64
2021/11/09 01:12:26;;;;;;;;;;;;;;;14.71;58.63;100234.28;2107088;27;20012;-63
2021/11/09 01:13:27;;;;;;;;;;;;;;;14.71;58.62;100231.56;2104449;27;19920;-63
2021/11/09 01:14:27;;;;;;;;;;;;;;;14.69;58.58;100237.09;2107994;27;19980;-63
2021/11/09 01:15:29;;;;;;;;;;;;;;;14.70;58.53;100227.09;2102734;27;20651;-63
2021/11/09 01:16:30;;;;;;;;;;;;;;;14.69;58.61;100231.66;2097150;28;20426;-63
2021/11/09 01:17:30;;;;;;;;;;;;;;;14.70;58.60;100229.81;2097620;28;20400;-63
2021/11/09 01:18:33;;;;;;;;;;;;;;;14.69;58.69;100226.25;2102597;27;19922;-63
2021/11/09 01:19:33;;;;;;;;;;;;;;;14.71;58.55;100223.44;2107915;27;19915;-63
2021/11/09 01:20:35;;;;;;;;;;;;;;;14.70;58.67;100229.81;2105982;27;19914;-63
2021/11/09 01:21:35;;;;;;;;;;;;;;;14.71;58.59;100223.44;2105252;27;19964;-63
2021/11/09 01:22:36;;;;;;;;;;;;;;;14.70;58.58;100221.69;2103448;27;19908;-63
2021/11/09 01:23:36;;;;;;;;;;;;;;;14.71;58.49;100228.84;2105273;27;20375;-63
2021/11/09 01:24:36;;;;;;;;;;;;;;;14.71;58.58;100223.44;2100885;27;19916;-64
2021/11/09 01:25:37;;;;;;;;;;;;;;;14.70;58.57;100224.38;2104828;27;19911;-63
2021/11/09 01:26:38;;;;;;;;;;;;;;;14.71;58.58;100224.28;2107905;27;19934;-63
2021/11/09 01:27:38;;;;;;;;;;;;;;;14.71;58.59;100226.13;2104009;27;19959;-64
2021/11/09 01:28:40;;;;;;;;;;;;;;;14.73;58.64;100224.19;2103527;27;20347;-64
2021/11/09 01:29:40;;;;;;;;;;;;;;;14.71;58.54;100224.28;2107944;27;19919;-63
2021/11/09 01:30:41;;;;;;;;;;;;;;;14.72;58.60;100225.16;2101818;27;19908;-63
2021/11/09 01:31:42;;;;;;;;;;;;;;;14.70;58.65;100218.97;2105661;27;19959;-63
2021/11/09 01:32:43;;;;;;;;;;;;;;;14.71;58.55;100218.00;2105627;27;19922;-63
2021/11/09 01:33:43;;;;;;;;;;;;;;;14.71;58.52;100218.00;2096307;28;19965;-63
2021/11/09 01:34:44;;;;;;;;;;;;;;;14.71;58.56;100216.16;2094799;28;20054;-63
2021/11/09 01:35:44;;;;;;;;;;;;;;;14.70;58.56;100213.53;2104244;27;19908;-63
2021/11/09 01:36:45;;;;;;;;;;;;;;;14.70;58.57;100210.81;2105461;27;20263;-63
2021/11/09 01:37:46;;;;;;;;;;;;;;;14.70;58.56;100210.81;2106101;27;21003;-63
2021/11/09 01:38:47;;;;;;;;;;;;;;;14.71;58.52;100213.44;2105752;27;20313;-63
2021/11/09 01:39:47;;;;;;;;;;;;;;;14.71;58.58;100212.56;2100342;28;19915;-63
2021/11/09 01:40:47;;;;;;;;;;;;;;;14.70;58.54;100205.41;2101269;27;20191;-64
2021/11/09 01:41:48;;;;;;;;;;;;;;;14.69;58.49;100215.41;2100454;27;19912;-64
2021/11/09 01:42:48;;;;;;;;;;;;;;;14.68;58.59;100202.81;2106617;27;19915;-64
2021/11/09 01:43:49;;;;;;;;;;;;;;;14.70;58.44;100208.13;2095064;28;20772;-64
2021/11/09 01:44:51;;;;;;;;;;;;;;;14.69;58.56;100211.81;2099420;28;19950;-64
2021/11/09 01:45:51;;;;;;;;;;;;;;;14.70;58.54;100210.81;2105505;27;20423;-64
2021/11/09 01:46:52;;;;;;;;;;;;;;;14.69;58.49;100209.09;2104518;27;19916;-64
2021/11/09 01:47:52;;;;;;;;;;;;;;;14.69;58.63;100211.81;2108522;27;19915;-64
2021/11/09 01:48:53;;;;;;;;;;;;;;;14.68;58.58;100210.09;2104084;27;20319;-64
2021/11/09 01:49:54;;;;;;;;;;;;;;;14.69;58.61;100214.53;2106418;27;19904;-66
2021/11/09 01:50:56;;;;;;;;;;;;;;;14.69;58.50;100214.53;2092521;28;19922;-64
2021/11/09 01:51:58;;;;;;;;;;;;;;;14.69;58.61;100209.97;2096443;28;19908;-65
2021/11/09 01:52:58;;;;;;;;;;;;;;;14.69;58.48;100209.09;2104076;27;19925;-64
2021/11/09 01:53:59;;;;;;;;;;;;;;;14.68;58.62;100201.97;2105603;27;20234;-64
2021/11/09 01:55:00;;;;;;;;;;;;;;;14.69;58.59;100199.13;2103261;27;19916;-64
2021/11/09 01:56:02;;;;;;;;;;;;;;;14.68;58.46;100202.81;2101960;27;19954;-64
2021/11/09 01:57:03;;;;;;;;;;;;;;;14.69;58.58;100203.69;2108316;27;19912;-64
2021/11/09 01:58:05;;;;;;;;;;;;;;;14.69;58.49;100198.25;2107546;27;19907;-64
2021/11/09 01:59:06;;;;;;;;;;;;;;;14.69;58.58;100206.41;2090866;28;19908;-64
2021/11/09 02:00:10;;;;;;;;;;;;;;;14.69;58.72;100203.69;2094958;28;20042;-64
2021/11/09 02:01:11;;;;;;;;;;;;;;;14.68;58.46;100208.25;2108956;27;20511;-64
2021/11/09 02:02:12;;;;;;;;;;;;;;;14.69;58.35;100214.53;2102989;27;19919;-64
2021/11/09 02:03:12;;;;;;;;;;;;;;;14.68;58.56;100212.81;2100530;27;20039;-64
2021/11/09 02:04:13;;;;;;;;;;;;;;;14.68;58.59;100213.69;2101365;27;19920;-64
2021/11/09 02:05:14;;;;;;;;;;;;;;;14.68;58.62;100212.81;2097085;27;20320;-65
2021/11/09 02:06:15;;;;;;;;;;;;;;;14.68;58.60;100218.25;2104144;27;19965;-64
2021/11/09 02:07:15;;;;;;;;;;;;;;;14.68;58.62;100223.69;2106169;27;19915;-64
2021/11/09 02:08:16;;;;;;;;;;;;;;;14.68;58.58;100212.81;2108392;27;20022;-64
2021/11/09 02:09:18;;;;;;;;;;;;;;;14.68;58.50;100223.69;2105541;27;20270;-62
2021/11/09 02:10:20;;;;;;;;;;;;;;;14.67;58.51;100220.06;2106996;28;19904;-62
2021/11/09 02:11:21;;;;;;;;;;;;;;;14.68;58.51;100215.53;2103029;27;19912;-63
2021/11/09 02:12:21;;;;;;;;;;;;;;;14.68;58.53;100223.69;2104852;28;19928;-63
2021/11/09 02:13:22;;;;;;;;;;;;;;;14.69;58.46;100225.38;2102618;27;20353;-64
2021/11/09 02:14:22;;;;;;;;;;;;;;;14.68;58.55;100223.69;2105443;27;19922;-63
2021/11/09 02:15:23;;;;;;;;;;;;;;;14.68;58.38;100223.69;2105697;27;19919;-63
2021/11/09 02:16:24;;;;;;;;;;;;;;;14.69;58.52;100222.69;2098872;28;19927;-63
2021/11/09 02:17:25;;;;;;;;;;;;;;;14.68;58.51;100226.38;2097191;28;19916;-63
2021/11/09 02:18:26;;;;;;;;;;;;;;;14.68;58.58;100226.38;2106707;27;20145;-63
2021/11/09 02:19:26;;;;;;;;;;;;;;;14.68;58.62;100229.09;2106171;28;20152;-63
2021/11/09 02:20:28;;;;;;;;;;;;;;;14.68;58.55;100224.53;2105029;27;19922;-63
2021/11/09 02:21:29;;;;;;;;;;;;;;;14.68;58.53;100223.69;2108200;28;20006;-63
2021/11/09 02:22:29;;;;;;;;;;;;;;;14.68;58.60;100229.09;2104758;27;19920;-63
2021/11/09 02:23:32;;;;;;;;;;;;;;;14.69;58.49;100225.38;2106441;27;19915;-63
2021/11/09 02:24:32;;;;;;;;;;;;;;;14.69;58.50;100225.38;2106407;27;20362;-63
2021/11/09 02:25:33;;;;;;;;;;;;;;;14.68;58.52;100223.69;2105784;28;20304;-64
2021/11/09 02:26:35;;;;;;;;;;;;;;;14.69;58.54;100225.38;2105561;27;20354;-63
2021/11/09 02:27:35;;;;;;;;;;;;;;;14.68;58.60;100215.53;2107998;28;20183;-63
2021/11/09 02:28:36;;;;;;;;;;;;;;;14.67;58.70;100219.22;2103375;27;19960;-63
2021/11/09 02:29:36;;;;;;;;;;;;;;;14.67;58.65;100216.50;2099743;28;20031;-63
2021/11/09 02:30:37;;;;;;;;;;;;;;;14.67;58.54;100216.50;2107056;27;20036;-63
2021/11/09 02:31:38;;;;;;;;;;;;;;;14.67;58.73;100213.78;2106201;28;19968;-63
2021/11/09 02:32:38;;;;;;;;;;;;;;;14.66;58.62;100221.06;2106045;28;20341;-63
2021/11/09 02:33:39;;;;;;;;;;;;;;;14.67;58.64;100221.94;2106262;27;19904;-63
2021/11/09 02:34:39;;;;;;;;;;;;;;;14.67;58.36;100216.50;2106954;28;20441;-63
2021/11/09 02:35:40;;;;;;;;;;;;;;;14.68;58.53;100218.25;2106999;28;19907;-63
2021/11/09 02:36:40;;;;;;;;;;;;;;;14.68;58.51;100212.81;2104220;28;20345;-63
2021/11/09 02:37:41;;;;;;;;;;;;;;;14.68;58.47;100210.09;2107401;27;20385;-63
2021/11/09 02:38:41;;;;;;;;;;;;;;;14.68;58.46;100218.25;2106742;28;19951;-62
2021/11/09 02:39:42;;;;;;;;;;;;;;;14.67;58.53;100217.34;2107062;28;20340;-63
2021/11/09 02:40:43;;;;;;;;;;;;;;;14.68;58.53;100208.25;2106468;27;19911;-63
2021/11/09 02:41:43;;;;;;;;;;;;;;;14.68;58.63;100207.41;2102085;28;19961;-63
2021/11/09 02:42:46;;;;;;;;;;;;;;;14.67;58.50;100209.22;2104827;27;19916;-64
2021/11/09 02:43:47;;;;;;;;;;;;;;;14.69;58.58;100209.09;2107432;28;19916;-64
2021/11/09 02:44:51;;;;;;;;;;;;;;;14.68;58.51;100218.25;2099048;27;19922;-64
2021/11/09 02:46:57;;;;;;;;;;;;;;;14.67;58.50;100211.94;2104126;28;20044;-64
2021/11/09 02:48:02;;;;;;;;;;;;;;;14.68;58.51;100212.81;2099990;27;19912;-64
2021/11/09 02:49:12;;;;;;;;;;;;;;;14.67;58.58;100222.78;2099834;27;19959;-64
2021/11/09 02:50:13;;;;;;;;;;;;;;;14.67;58.58;100216.50;2090812;28;19928;-64
2021/11/09 02:51:21;;;;;;;;;;;;;;;14.67;58.58;100217.34;2089848;28;19915;-63
2021/11/09 02:52:22;;;;;;;;;;;;;;;14.66;58.60;100218.34;2100260;27;20454;-64
2021/11/09 02:54:31;;;;;;;;;;;;;;;14.66;58.69;100221.06;2099604;27;19946;-64
2021/11/09 02:57:04;;;;;;;;;;;;;;;14.66;58.56;100225.63;2075522;28;19995;-64
2021/11/09 03:01:57;;;;;;;;;;;;;;;14.67;58.56;100221.94;2110892;27;20076;-65
2021/11/09 03:03:27;;;;;;;;;;;;;;;14.67;58.60;100216.50;2104044;27;20390;-65
2021/11/09 03:04:44;;;;;;;;;;;;;;;14.66;58.60;100218.34;2097892;27;19920;-64
2021/11/09 03:06:57;;;;;;;;;;;;;;;14.66;58.55;100214.78;2107880;27;19912;-65
2021/11/09 03:08:04;;;;;;;;;;;;;;;14.66;58.63;100218.34;2099284;27;20424;-65
2021/11/09 03:10:36;;;;;;;;;;;;;;;14.66;58.60;100214.78;2104135;27;19992;-66
2021/11/09 03:11:41;;;;;;;;;;;;;;;14.65;58.61;100213.03;2101870;27;19975;-64
2021/11/09 03:12:42;;;;;;;;;;;;;;;14.66;58.60;100217.50;2105732;27;19969;-65
2021/11/09 03:13:43;;;;;;;;;;;;;;;14.65;58.57;100221.16;2106603;27;19915;-65
2021/11/09 03:14:45;;;;;;;;;;;;;;;14.65;58.67;100213.03;2101937;27;20400;-64
2021/11/09 03:15:45;;;;;;;;;;;;;;;14.65;58.66;100218.47;2107583;27;20004;-64
2021/11/09 03:16:46;;;;;;;;;;;;;;;14.65;58.64;100218.47;2106451;27;19965;-63
2021/11/09 03:17:51;;;;;;;;;;;;;;;14.65;58.61;100218.47;2101171;28;20230;-64
2021/11/09 03:18:57;;;;;;;;;;;;;;;14.64;58.65;100217.59;2100408;27;19963;-64
2021/11/09 03:20:00;;;;;;;;;;;;;;;14.65;58.56;100213.03;2103326;27;20271;-64
2021/11/09 03:40:51;;;;;;;;;;;;;;;14.66;58.62;100225.63;2104751;27;20221;-62
2021/11/09 03:44:35;;;;;;;;;;;;;;;14.64;58.56;100233.03;2099227;27;20218;-63
2021/11/09 03:45:36;;;;;;;;;;;;;;;14.64;58.63;100235.72;2100754;27;20420;-63
2021/11/09 03:46:36;;;;;;;;;;;;;;;14.64;58.64;100235.72;2100893;28;20306;-63
2021/11/09 03:47:43;;;;;;;;;;;;;;;14.64;58.54;100228.44;2100318;27;20227;-64
2021/11/09 03:48:43;;;;;;;;;;;;;;;14.66;58.65;100231.06;2105257;27;19920;-63
2021/11/09 03:49:45;;;;;;;;;;;;;;;14.63;58.66;100232.16;2109330;27;20015;-62
2021/11/09 03:50:45;;;;;;;;;;;;;;;14.65;58.61;100229.31;2101733;27;19924;-63
2021/11/09 03:51:46;;;;;;;;;;;;;;;14.65;58.57;100234.75;2101243;27;19914;-63
2021/11/09 03:52:52;;;;;;;;;;;;;;;14.65;58.62;100229.31;2100881;27;20402;-63
2021/11/09 03:53:58;;;;;;;;;;;;;;;14.64;58.62;100223.03;2098978;27;20586;-63
2021/11/09 03:55:03;;;;;;;;;;;;;;;14.65;58.58;100223.88;2107943;27;20328;-63
2021/11/09 03:56:18;;;;;;;;;;;;;;;14.64;58.62;100225.75;2093883;27;19922;-63
2021/11/09 03:57:33;;;;;;;;;;;;;;;14.64;58.62;100227.59;2101391;27;20477;-63
2021/11/09 03:58:44;;;;;;;;;;;;;;;14.64;58.54;100217.59;2101468;27;19925;-63
2021/11/09 04:03:01;;;;;;;;;;;;;;;14.64;58.57;100222.16;2121759;27;19943;-66
2021/11/09 04:04:26;;;;;;;;;;;;;;;14.65;58.54;100223.88;2118765;27;19939;-66
2021/11/09 04:05:33;;;;;;;;;;;;;;;14.64;58.68;100222.16;2119744;27;19915;-66
2021/11/09 04:06:40;;;;;;;;;;;;;;;14.64;58.66;100227.59;2121012;27;19938;-66
2021/11/09 04:12:46;;;;;;;;;;;;;;;14.62;58.50;100225.00;2122553;27;20414;-66
2021/11/09 04:17:00;;;;;;;;;;;;;;;14.62;58.63;100225.00;2121051;27;19958;-66
2021/11/09 04:19:25;;;;;;;;;;;;;;;14.62;58.50;100216.00;2122220;27;19998;-66
2021/11/09 04:23:30;;;;;;;;;;;;;;;14.62;58.59;100225.00;2122530;27;19923;-66
2021/11/09 04:26:39;;;;;;;;;;;;;;;14.62;58.67;100226.84;2121684;27;19915;-67
2021/11/09 04:29:15;;;;;;;;;;;;;;;14.62;58.55;100229.56;2089614;27;20318;-66
2021/11/09 05:01:06;;;;;;;;;;;;;;;14.62;58.57;100221.41;2114501;27;19912;-65
2021/11/09 05:08:17;;;;;;;;;;;;;;;14.60;58.59;100224.25;2124565;27;19978;-59
2021/11/09 05:10:25;;;;;;;;;;;;;;;14.61;58.57;100211.56;2124527;27;19912;-59
2021/11/09 05:11:26;;;;;;;;;;;;;;;14.60;58.60;100207.09;2124375;27;19918;-59
2021/11/09 05:12:26;;;;;;;;;;;;;;;14.60;58.59;100216.13;2124012;27;20002;-58
2021/11/09 05:13:27;;;;;;;;;;;;;;;14.60;58.60;100204.38;2121654;27;20480;-59
2021/11/09 05:14:28;;;;;;;;;;;;;;;14.60;58.62;100204.38;2115642;28;19916;-59
2021/11/09 05:15:29;;;;;;;;;;;;;;;14.60;58.60;100205.28;2115998;28;19947;-60
2021/11/09 05:16:29;;;;;;;;;;;;;;;14.60;58.57;100210.69;2118707;27;19922;-59
2021/11/09 05:17:29;;;;;;;;;;;;;;;14.60;58.60;100209.81;2124226;27;19911;-59
2021/11/09 05:18:29;;;;;;;;;;;;;;;14.60;58.50;100204.38;2124563;27;19911;-59
2021/11/09 05:19:30;;;;;;;;;;;;;;;14.60;58.59;100204.38;2118156;27;20002;-59
2021/11/09 05:20:30;;;;;;;;;;;;;;;14.58;58.60;100199.97;2123967;27;19917;-59
2021/11/09 05:21:31;;;;;;;;;;;;;;;14.60;58.60;100194.44;2123669;27;19937;-59
2021/11/09 05:22:31;;;;;;;;;;;;;;;14.59;58.61;100198.09;2124291;27;19916;-58
2021/11/09 05:23:32;;;;;;;;;;;;;;;14.60;58.50;100193.53;2124028;27;20374;-59
2021/11/09 05:24:32;;;;;;;;;;;;;;;14.60;58.58;100199.84;2122839;27;19911;-59
2021/11/09 05:25:32;;;;;;;;;;;;;;;14.60;58.64;100198.97;2122195;27;20001;-59
2021/11/09 05:26:33;;;;;;;;;;;;;;;14.58;58.54;100197.25;2124407;27;19912;-59
2021/11/09 05:27:34;;;;;;;;;;;;;;;14.58;58.61;100197.25;2118084;27;19912;-59
2021/11/09 05:28:34;;;;;;;;;;;;;;;14.58;58.53;100191.81;2120151;27;19911;-59
2021/11/09 05:29:35;;;;;;;;;;;;;;;14.58;58.61;100180.97;2124354;27;19937;-59
2021/11/09 05:30:39;;;;;;;;;;;;;;;14.57;58.52;100190.06;2124126;27;19965;-59
2021/11/09 05:31:40;;;;;;;;;;;;;;;14.58;58.49;100191.81;2120201;27;20297;-60
2021/11/09 05:32:41;;;;;;;;;;;;;;;14.58;58.61;100191.81;2124134;27;19912;-59
2021/11/09 05:33:41;;;;;;;;;;;;;;;14.58;58.51;100197.25;2124206;27;19912;-58
2021/11/09 05:34:42;;;;;;;;;;;;;;;14.58;58.60;100191.81;2119369;27;19911;-59
2021/11/09 05:35:43;;;;;;;;;;;;;;;14.57;58.57;100190.06;2114901;28;19912;-59
2021/11/09 05:36:44;;;;;;;;;;;;;;;14.58;58.60;100191.81;2111347;28;19983;-59
2021/11/09 05:37:47;;;;;;;;;;;;;;;14.57;58.63;100184.66;2115346;28;20378;-59
2021/11/09 05:38:52;;;;;;;;;;;;;;;14.57;58.57;100184.66;2122862;27;19915;-58
2021/11/09 05:39:54;;;;;;;;;;;;;;;14.57;58.64;100184.66;2117995;27;19951;-58
2021/11/09 05:40:58;;;;;;;;;;;;;;;14.58;58.56;100185.53;2115545;28;19951;-59
2021/11/09 05:41:59;;;;;;;;;;;;;;;14.60;58.61;100182.69;2116876;28;19916;-59
2021/11/09 05:43:00;;;;;;;;;;;;;;;14.58;58.49;100191.81;2120151;27;19950;-58
2021/11/09 05:44:00;;;;;;;;;;;;;;;14.59;58.55;100198.09;2124067;27;20373;-59
2021/11/09 05:45:09;;;;;;;;;;;;;;;14.58;58.55;100194.53;2119212;27;20362;-58
2021/11/09 05:46:09;;;;;;;;;;;;;;;14.58;58.56;100190.97;2116310;27;19918;-59
2021/11/09 05:47:10;;;;;;;;;;;;;;;14.60;58.51;100196.25;2124106;27;19912;-59
2021/11/09 05:48:11;;;;;;;;;;;;;;;14.58;58.52;100191.81;2123981;27;19916;-58
2021/11/09 05:49:11;;;;;;;;;;;;;;;14.59;58.35;100195.38;2124175;27;19911;-59
2021/11/09 05:50:12;;;;;;;;;;;;;;;14.57;58.51;100190.06;2123614;27;19919;-59
2021/11/09 05:51:12;;;;;;;;;;;;;;;14.58;58.49;100191.81;2123900;27;19908;-59
2021/11/09 05:52:13;;;;;;;;;;;;;;;14.58;58.56;100191.81;2123221;27;19965;-58
2021/11/09 05:53:13;;;;;;;;;;;;;;;14.58;58.59;100197.25;2115747;28;19911;-59
2021/11/09 05:54:13;;;;;;;;;;;;;;;14.58;58.45;100197.25;2106297;28;19916;-58
2021/11/09 05:55:20;;;;;;;;;;;;;;;14.57;58.58;100198.22;2106379;28;20321;-59
2021/11/09 05:56:20;;;;;;;;;;;;;;;14.58;58.51;100201.81;2115335;28;19912;-59
2021/11/09 05:57:20;;;;;;;;;;;;;;;14.58;58.55;100196.38;2115664;28;19918;-59
2021/11/09 05:58:21;;;;;;;;;;;;;;;14.57;58.62;100206.34;2116709;28;19916;-59
2021/11/09 05:59:21;;;;;;;;;;;;;;;14.58;58.56;100212.66;2123957;27;19920;-59
2021/11/09 06:00:22;;;;;;;;;;;;;;;14.58;58.59;100208.09;2119586;27;20376;-59
2021/11/09 06:01:22;;;;;;;;;;;;;;;14.58;58.55;100218.94;2115366;28;20301;-60
2021/11/09 06:02:23;;;;;;;;;;;;;;;14.57;58.48;100214.47;2123145;27;19911;-59
2021/11/09 06:03:23;;;;;;;;;;;;;;;14.57;58.52;100214.47;2122003;27;19911;-59
2021/11/09 06:04:25;;;;;;;;;;;;;;;14.57;58.54;100211.78;2115472;28;19922;-59
2021/11/09 06:05:26;;;;;;;;;;;;;;;14.58;58.59;100213.53;2122732;27;19912;-59
2021/11/09 06:06:26;;;;;;;;;;;;;;;14.57;58.58;100222.63;2123714;27;19911;-60
2021/11/09 06:07:27;;;;;;;;;;;;;;;14.59;58.59;100225.22;2121483;27;20598;-60
2021/11/09 06:08:33;;;;;;;;;;;;;;;14.58;58.47;100223.50;2123240;27;19964;-59
2021/11/09 06:09:33;;;;;;;;;;;;;;;14.57;58.48;100222.63;2115692;28;19955;-60
2021/11/09 06:10:33;;;;;;;;;;;;;;;14.56;58.56;100229.03;2122256;28;19911;-59
2021/11/09 06:11:34;;;;;;;;;;;;;;;14.57;58.55;100227.19;2123757;28;19911;-59
2021/11/09 06:12:34;;;;;;;;;;;;;;;14.56;58.62;100231.75;2123755;28;19918;-59
2021/11/09 06:13:35;;;;;;;;;;;;;;;14.58;58.56;100235.22;2120291;28;19919;-59
2021/11/09 06:14:35;;;;;;;;;;;;;;;14.57;58.60;100233.47;2115676;28;19981;-59
2021/11/09 06:15:35;;;;;;;;;;;;;;;14.57;58.61;100235.31;2115624;28;20386;-59
2021/11/09 06:16:36;;;;;;;;;;;;;;;14.56;58.58;100237.19;2110242;28;20293;-59
2021/11/09 06:17:36;;;;;;;;;;;;;;;14.57;58.60;100238.91;2114988;28;19911;-61
2021/11/09 06:18:37;;;;;;;;;;;;;;;14.57;58.54;100244.31;2123070;28;20377;-60
2021/11/09 06:19:37;;;;;;;;;;;;;;;14.56;58.64;100242.59;2112704;28;19915;-59
2021/11/09 06:20:38;;;;;;;;;;;;;;;14.56;58.62;100242.59;2106868;28;19916;-59
2021/11/09 06:21:38;;;;;;;;;;;;;;;14.57;58.60;100244.31;2119962;28;19911;-59
2021/11/09 06:22:39;;;;;;;;;;;;;;;14.57;58.54;100243.47;2118566;28;19957;-59
2021/11/09 06:23:39;;;;;;;;;;;;;;;14.56;58.56;100249.88;2123857;28;20289;-59
2021/11/09 06:24:39;;;;;;;;;;;;;;;14.57;58.58;100249.75;2122598;28;19912;-59
2021/11/09 06:25:42;;;;;;;;;;;;;;;14.56;58.56;100247.19;2115515;28;19912;-59
2021/11/09 06:26:43;;;;;;;;;;;;;;;14.56;58.52;100250.75;2119117;28;19956;-59
2021/11/09 06:27:43;;;;;;;;;;;;;;;14.57;58.58;100248.88;2115006;28;20336;-65
2021/11/09 06:28:43;;;;;;;;;;;;;;;14.57;58.53;100248.88;2104542;27;20334;-64
2021/11/09 06:29:44;;;;;;;;;;;;;;;14.56;58.60;100242.59;2110025;28;20393;-65
2021/11/09 06:30:46;;;;;;;;;;;;;;;14.56;58.63;100250.75;2098467;27;19922;-64
2021/11/09 06:31:49;;;;;;;;;;;;;;;14.56;58.58;100248.03;2101141;27;19965;-65
2021/11/09 06:32:49;;;;;;;;;;;;;;;14.57;58.54;100248.88;2110439;27;19919;-65
2021/11/09 06:33:50;;;;;;;;;;;;;;;14.56;58.57;100253.47;2107154;27;19919;-65
2021/11/09 06:34:50;;;;;;;;;;;;;;;14.56;58.55;100258.88;2107729;27;20309;-65
2021/11/09 06:35:51;;;;;;;;;;;;;;;14.56;58.52;100253.47;2102241;28;20348;-65
2021/11/09 06:36:52;;;;;;;;;;;;;;;14.57;58.49;100248.88;2103715;27;19922;-65
2021/11/09 06:37:52;;;;;;;;;;;;;;;14.56;58.61;100248.03;2109478;27;19915;-63
2021/11/09 06:38:53;;;;;;;;;;;;;;;14.57;58.48;100248.88;2098199;28;20014;-64
2021/11/09 06:39:53;;;;;;;;;;;;;;;14.56;58.51;100250.75;2099163;28;20377;-63
2021/11/09 06:40:53;;;;;;;;;;;;;;;14.56;58.55;100250.75;2110133;27;19908;-63
2021/11/09 06:41:55;;;;;;;;;;;;;;;14.54;58.58;100255.41;2106686;27;20025;-64
2021/11/09 06:42:55;;;;;;;;;;;;;;;14.55;58.59;100256.28;2108235;27;20408;-64
2021/11/09 06:43:56;;;;;;;;;;;;;;;14.55;58.59;100259.88;2109541;27;20319;-64
2021/11/09 06:44:56;;;;;;;;;;;;;;;14.55;58.51;100264.41;2102563;27;20273;-64
2021/11/09 06:45:57;;;;;;;;;;;;;;;14.55;58.58;100257.16;2101587;28;19907;-63
2021/11/09 06:46:58;;;;;;;;;;;;;;;14.55;58.62;100265.31;2105211;27;19915;-63
2021/11/09 06:47:58;;;;;;;;;;;;;;;14.54;58.57;100260.84;2097644;28;19915;-64